Time;durP1;ratioP1;P1;durP2;ratioP2;P2;SDS_P1;SDS_P2;PMS_P1;PMS_P2;Temp;Humidity;BMP_temperature;BMP_pressure;BME280_temperature;BME280_humidity;BME280_pressure;Samples;Min_cycle;Max_cycle;Signal;HPM_P1;HPM_P2
2024/03/06 00:02:09;;;;;;;7.47;4.60;;;4.40;99.90;;;;;;4997575;28;20072;-63
2024/03/06 00:04:35;;;;;;;7.07;4.65;;;4.40;99.90;;;;;;4996972;28;20249;-63
2024/03/06 00:07:01;;;;;;;7.95;3.78;;;4.40;99.90;;;;;;4994035;28;20058;-63
2024/03/06 00:09:27;;;;;;;12.82;5.28;;;4.40;99.90;;;;;;5001711;28;20416;-63
2024/03/06 00:11:54;;;;;;;8.60;4.85;;;4.40;99.90;;;;;;5001605;28;20535;-63
2024/03/06 00:14:21;;;;;;;8.45;5.07;;;4.40;99.90;;;;;;4985760;28;20057;-63
2024/03/06 00:16:51;;;;;;;8.57;4.72;;;4.40;99.90;;;;;;5002431;28;20077;-63
2024/03/06 00:19:20;;;;;;;11.20;5.15;;;4.40;99.90;;;;;;4997133;28;20050;-64
2024/03/06 00:21:46;;;;;;;7.33;4.90;;;4.40;99.90;;;;;;5001643;28;20503;-63
2024/03/06 00:24:12;;;;;;;10.30;4.85;;;4.40;99.90;;;;;;5000194;28;20054;-64
2024/03/06 00:26:44;;;;;;;12.80;6.13;;;4.40;99.90;;;;;;5002315;28;20085;-63
2024/03/06 00:29:10;;;;;;;9.63;5.18;;;4.30;99.90;;;;;;4994481;28;20053;-63
2024/03/06 00:31:36;;;;;;;9.43;5.13;;;4.30;99.90;;;;;;5000042;28;20426;-63
2024/03/06 00:34:02;;;;;;;8.73;4.97;;;4.30;99.90;;;;;;4989890;28;20061;-63
2024/03/06 00:36:27;;;;;;;8.98;4.40;;;4.30;99.90;;;;;;5001946;28;20164;-63
2024/03/06 00:38:53;;;;;;;8.40;4.90;;;4.30;99.90;;;;;;5001826;28;20467;-63
2024/03/06 00:41:20;;;;;;;8.98;5.30;;;4.30;99.90;;;;;;4996676;28;20517;-63
2024/03/06 00:43:46;;;;;;;9.73;5.55;;;4.30;99.90;;;;;;5000906;28;20049;-63
2024/03/06 00:46:11;;;;;;;10.63;5.18;;;4.20;99.90;;;;;;4994289;28;20053;-63
2024/03/06 00:48:40;;;;;;;9.15;5.38;;;4.20;99.90;;;;;;5001376;28;20041;-63
2024/03/06 00:51:09;;;;;;;9.63;5.47;;;4.30;99.90;;;;;;4999506;28;20042;-64
2024/03/06 00:53:35;;;;;;;9.57;4.93;;;4.20;99.90;;;;;;4993415;28;20080;-64
2024/03/06 00:56:01;;;;;;;7.50;5.05;;;4.20;99.90;;;;;;4990625;28;20044;-63
2024/03/06 00:58:27;;;;;;;10.40;4.85;;;4.20;99.90;;;;;;4995341;28;20519;-63
2024/03/06 01:00:53;;;;;;;8.50;5.13;;;4.30;99.90;;;;;;4999538;28;20038;-63
2024/03/06 01:03:19;;;;;;;10.73;5.28;;;4.30;99.90;;;;;;4999886;28;20516;-63
2024/03/06 01:05:46;;;;;;;10.43;5.43;;;4.20;99.90;;;;;;4999735;28;20488;-63
2024/03/06 01:08:12;;;;;;;7.95;5.10;;;4.20;99.90;;;;;;4998842;28;20057;-63
2024/03/06 01:10:38;;;;;;;11.55;5.78;;;4.20;99.90;;;;;;4995963;28;20050;-63
2024/03/06 01:13:04;;;;;;;10.38;5.30;;;4.20;99.90;;;;;;5002555;28;20084;-63
2024/03/06 01:15:30;;;;;;;13.75;5.30;;;4.30;99.90;;;;;;5002917;28;20120;-63
2024/03/06 01:17:57;;;;;;;12.02;5.45;;;4.30;99.90;;;;;;5002977;28;20460;-63
2024/03/06 01:20:23;;;;;;;18.02;5.95;;;4.30;99.90;;;;;;5003977;28;20046;-63
2024/03/06 01:22:49;;;;;;;6.85;4.28;;;4.20;99.90;;;;;;5003834;28;20482;-63
2024/03/06 01:25:14;;;;;;;7.47;5.13;;;4.20;99.90;;;;;;4992760;28;20053;-64
2024/03/06 01:27:40;;;;;;;6.72;5.47;;;4.30;99.90;;;;;;4999207;28;20148;-63
2024/03/06 01:30:07;;;;;;;7.90;5.35;;;4.30;99.90;;;;;;4994059;28;20037;-63
2024/03/06 01:32:33;;;;;;;12.52;5.88;;;4.30;99.90;;;;;;5004540;28;20529;-63
2024/03/06 01:34:59;;;;;;;10.63;5.07;;;4.30;99.90;;;;;;4995232;28;20045;-63
2024/03/06 01:37:24;;;;;;;10.18;5.03;;;4.30;99.90;;;;;;5001066;28;20049;-63
2024/03/06 01:39:50;;;;;;;14.98;6.32;;;4.30;99.90;;;;;;5002867;28;20125;-64
2024/03/06 01:42:18;;;;;;;8.20;5.32;;;4.30;99.90;;;;;;4984544;28;20076;-64
2024/03/06 01:44:43;;;;;;;10.38;6.32;;;4.30;99.90;;;;;;5002355;28;20050;-63
2024/03/06 01:47:09;;;;;;;8.57;4.90;;;4.30;99.90;;;;;;4992068;28;20046;-64
2024/03/06 01:49:35;;;;;;;11.50;5.38;;;4.30;99.90;;;;;;5002255;28;20034;-63
2024/03/06 01:52:02;;;;;;;9.10;5.22;;;4.30;99.90;;;;;;5000948;28;20109;-63
2024/03/06 01:54:28;;;;;;;10.70;5.60;;;4.30;99.90;;;;;;4988527;28;20046;-63
2024/03/06 01:56:55;;;;;;;11.45;5.72;;;4.30;99.90;;;;;;4994747;28;20064;-64
2024/03/06 01:59:25;;;;;;;10.63;6.13;;;4.30;99.90;;;;;;4977598;28;20097;-63
2024/03/06 02:01:53;;;;;;;8.13;5.18;;;4.30;99.90;;;;;;5001570;28;20057;-63
2024/03/06 02:04:20;;;;;;;13.18;5.53;;;4.30;99.90;;;;;;4995145;28;20045;-64
2024/03/06 02:06:47;;;;;;;13.48;5.75;;;4.30;99.90;;;;;;4996879;28;20415;-63
2024/03/06 02:09:13;;;;;;;6.25;4.50;;;4.30;99.90;;;;;;5000948;28;20371;-63
2024/03/06 02:11:40;;;;;;;12.73;6.18;;;4.30;99.90;;;;;;4996055;28;20053;-63
2024/03/06 02:14:09;;;;;;;11.95;5.22;;;4.30;99.90;;;;;;5000966;28;20127;-63
2024/03/06 02:16:36;;;;;;;12.38;5.68;;;4.30;99.90;;;;;;4997714;28;20535;-63
2024/03/06 02:19:03;;;;;;;11.80;5.82;;;4.30;99.90;;;;;;4993306;28;20057;-63
2024/03/06 02:21:29;;;;;;;8.85;5.97;;;4.30;99.90;;;;;;5003603;28;20087;-63
2024/03/06 02:23:54;;;;;;;11.65;5.75;;;4.30;99.90;;;;;;5001486;28;20496;-63
2024/03/06 02:26:21;;;;;;;10.38;5.65;;;4.30;99.90;;;;;;5003639;28;20049;-63
2024/03/06 02:28:51;;;;;;;8.45;5.68;;;4.30;99.90;;;;;;4994938;28;20373;-63
2024/03/06 02:31:17;;;;;;;9.73;7.57;;;4.30;99.90;;;;;;5000701;28;20045;-64
2024/03/06 02:33:44;;;;;;;8.27;5.63;;;4.30;99.90;;;;;;5003026;28;20126;-63
2024/03/06 02:36:11;;;;;;;10.10;6.03;;;4.30;99.90;;;;;;4999239;28;20051;-63
2024/03/06 02:38:37;;;;;;;9.55;5.95;;;4.30;99.90;;;;;;5003723;28;20038;-63
2024/03/06 02:41:03;;;;;;;11.18;6.32;;;4.30;99.90;;;;;;4998532;28;20377;-63
2024/03/06 02:43:29;;;;;;;13.20;5.88;;;4.30;99.90;;;;;;5002745;28;20049;-63
2024/03/06 02:45:55;;;;;;;11.18;6.13;;;4.30;99.90;;;;;;4996728;28;20315;-63
2024/03/06 02:48:20;;;;;;;10.90;6.13;;;4.30;99.90;;;;;;5003914;28;20515;-63
2024/03/06 02:50:46;;;;;;;11.23;5.88;;;4.30;99.90;;;;;;4996969;28;20045;-63
2024/03/06 02:53:12;;;;;;;10.65;6.57;;;4.30;99.90;;;;;;5000869;28;20041;-63
2024/03/06 02:55:38;;;;;;;10.75;5.93;;;4.30;99.90;;;;;;4980590;28;20038;-63
2024/03/06 02:58:04;;;;;;;12.32;6.07;;;4.30;99.90;;;;;;5003916;28;20606;-63
2024/03/06 03:00:31;;;;;;;9.70;6.25;;;4.30;99.90;;;;;;4984236;28;20084;-63
2024/03/06 03:02:57;;;;;;;11.68;6.32;;;4.30;99.90;;;;;;5000417;28;20042;-63
2024/03/06 03:05:23;;;;;;;15.40;6.47;;;4.30;99.90;;;;;;4994315;28;20037;-63
2024/03/06 03:07:49;;;;;;;11.30;5.55;;;4.30;99.90;;;;;;5002582;28;20562;-63
2024/03/06 03:10:15;;;;;;;9.00;5.45;;;4.30;99.90;;;;;;5000989;28;20154;-63
2024/03/06 03:12:41;;;;;;;13.95;5.93;;;4.30;99.90;;;;;;4997310;28;20042;-63
2024/03/06 03:15:08;;;;;;;10.18;6.50;;;4.30;99.90;;;;;;4996662;28;20077;-64
2024/03/06 03:17:33;;;;;;;6.95;5.68;;;4.30;99.90;;;;;;5000782;28;20121;-63
2024/03/06 03:20:00;;;;;;;11.50;6.65;;;4.30;99.90;;;;;;4983445;28;20137;-63
2024/03/06 03:22:25;;;;;;;9.98;5.95;;;4.30;99.90;;;;;;4984719;28;20432;-63
2024/03/06 03:24:51;;;;;;;12.95;7.30;;;4.20;99.90;;;;;;5001207;28;20050;-63
2024/03/06 03:27:17;;;;;;;12.38;7.47;;;4.30;99.90;;;;;;4995643;28;20046;-63
2024/03/06 03:29:43;;;;;;;11.45;5.95;;;4.20;99.90;;;;;;4996608;28;20459;-63
2024/03/06 03:32:09;;;;;;;9.93;6.10;;;4.20;99.90;;;;;;4995498;28;20560;-63
2024/03/06 03:34:35;;;;;;;11.07;6.28;;;4.20;99.90;;;;;;4994592;28;20038;-63
2024/03/06 03:37:01;;;;;;;8.77;5.82;;;4.20;99.90;;;;;;4988446;28;20077;-63
2024/03/06 03:39:27;;;;;;;10.70;6.70;;;4.30;99.90;;;;;;4991498;28;20052;-63
2024/03/06 03:41:53;;;;;;;10.77;6.38;;;4.20;99.90;;;;;;5000393;28;20046;-63
2024/03/06 03:44:19;;;;;;;9.45;6.35;;;4.20;99.90;;;;;;4984633;28;20046;-63
2024/03/06 03:46:45;;;;;;;10.68;6.10;;;4.20;99.90;;;;;;5001342;28;20466;-63
2024/03/06 03:49:11;;;;;;;9.07;6.55;;;4.20;99.90;;;;;;5001906;28;20399;-63
2024/03/06 03:51:38;;;;;;;9.68;6.32;;;4.20;99.90;;;;;;4987482;28;20054;-63
2024/03/06 03:54:05;;;;;;;8.10;5.70;;;4.20;99.90;;;;;;4989528;28;20081;-63
2024/03/06 03:56:31;;;;;;;9.90;6.22;;;4.20;99.90;;;;;;4997796;28;20137;-63
2024/03/06 03:58:59;;;;;;;10.40;6.22;;;4.20;99.90;;;;;;5001879;28;20117;-63
2024/03/06 04:01:25;;;;;;;10.48;6.75;;;4.20;99.90;;;;;;4976731;28;20086;-63
2024/03/06 04:03:51;;;;;;;10.63;6.00;;;4.20;99.90;;;;;;4995872;28;20217;-63
2024/03/06 04:06:17;;;;;;;9.30;6.35;;;4.20;99.90;;;;;;4969343;28;20404;-63
2024/03/06 04:08:43;;;;;;;11.13;6.47;;;4.20;99.90;;;;;;4999074;28;20464;-63
2024/03/06 04:11:09;;;;;;;7.85;5.55;;;4.20;99.90;;;;;;5001585;28;20139;-63
2024/03/06 04:13:38;;;;;;;11.68;6.53;;;4.20;99.90;;;;;;4994392;28;20054;-63
2024/03/06 04:16:05;;;;;;;15.20;6.80;;;4.20;99.90;;;;;;4997191;28;20412;-63
2024/03/06 04:18:35;;;;;;;11.05;6.13;;;4.20;99.90;;;;;;4993371;28;20582;-63
2024/03/06 04:21:05;;;;;;;12.70;6.88;;;4.20;99.90;;;;;;4990440;28;20141;-64
2024/03/06 04:23:31;;;;;;;10.95;5.95;;;4.20;99.90;;;;;;4994668;28;20096;-63
2024/03/06 04:25:57;;;;;;;10.77;6.13;;;4.20;99.90;;;;;;5001083;28;20467;-64
2024/03/06 04:28:22;;;;;;;11.63;6.38;;;4.20;99.90;;;;;;4993262;28;20084;-63
2024/03/06 04:30:48;;;;;;;11.55;5.80;;;4.20;99.90;;;;;;4985719;28;20050;-63
2024/03/06 04:33:15;;;;;;;14.65;6.30;;;4.20;99.90;;;;;;5001751;28;20030;-63
2024/03/06 04:35:41;;;;;;;6.97;5.43;;;4.20;99.90;;;;;;5000751;28;20046;-63
2024/03/06 04:38:07;;;;;;;11.57;7.25;;;4.20;99.90;;;;;;4999202;28;20042;-63
2024/03/06 04:40:34;;;;;;;9.57;5.88;;;4.30;99.90;;;;;;4990120;28;20122;-64
2024/03/06 04:43:00;;;;;;;10.68;6.35;;;4.20;99.90;;;;;;4993653;28;20041;-63
2024/03/06 04:45:28;;;;;;;9.32;6.18;;;4.20;99.90;;;;;;4990576;28;20050;-63
2024/03/06 04:47:53;;;;;;;7.78;5.93;;;4.30;99.90;;;;;;4997641;28;20081;-63
2024/03/06 04:50:19;;;;;;;9.10;5.68;;;4.20;99.90;;;;;;4988061;28;20126;-63
2024/03/06 04:52:45;;;;;;;15.55;7.07;;;4.20;99.90;;;;;;4993708;28;20365;-63
2024/03/06 04:55:12;;;;;;;11.60;6.22;;;4.20;99.90;;;;;;4986971;28;20050;-63
2024/03/06 04:57:40;;;;;;;10.38;5.97;;;4.30;99.90;;;;;;4998983;28;20053;-63
2024/03/06 05:00:10;;;;;;;14.52;6.90;;;4.30;99.90;;;;;;5002893;28;20049;-63
2024/03/06 05:02:36;;;;;;;8.83;6.10;;;4.30;99.90;;;;;;4994742;28;20049;-63
2024/03/06 05:05:03;;;;;;;9.65;5.97;;;4.30;99.90;;;;;;5002164;28;20053;-63
2024/03/06 05:07:30;;;;;;;12.60;6.82;;;4.30;99.90;;;;;;5003608;28;20081;-63
2024/03/06 05:09:59;;;;;;;10.88;6.68;;;4.30;99.90;;;;;;5002932;28;20460;-63
2024/03/06 05:12:25;;;;;;;16.73;7.47;;;4.30;99.90;;;;;;5003810;28;20045;-63
2024/03/06 05:14:52;;;;;;;12.20;7.40;;;4.30;99.90;;;;;;4998441;28;20547;-63
2024/03/06 05:17:18;;;;;;;9.70;5.97;;;4.30;99.90;;;;;;5002216;28;20054;-63
2024/03/06 05:19:45;;;;;;;11.05;6.47;;;4.30;99.90;;;;;;5004796;28;20088;-63
2024/03/06 05:22:13;;;;;;;11.18;6.38;;;4.30;99.90;;;;;;4993408;28;20428;-63
2024/03/06 05:24:40;;;;;;;11.43;6.50;;;4.40;99.90;;;;;;5001385;28;20499;-64
2024/03/06 05:27:06;;;;;;;8.27;6.07;;;4.30;99.90;;;;;;4994512;28;20101;-63
2024/03/06 05:29:32;;;;;;;12.10;7.43;;;4.30;99.90;;;;;;4991301;28;20054;-63
2024/03/06 05:31:58;;;;;;;10.18;6.25;;;4.30;99.90;;;;;;4995544;28;20038;-63
2024/03/06 05:34:24;;;;;;;12.55;6.18;;;4.30;99.90;;;;;;4996732;28;20500;-63
2024/03/06 05:36:50;;;;;;;11.43;6.70;;;4.30;99.90;;;;;;5005229;28;20038;-64
2024/03/06 05:39:17;;;;;;;10.20;6.50;;;4.40;99.90;;;;;;4994271;28;20414;-63
2024/03/06 05:41:43;;;;;;;9.90;5.85;;;4.30;99.90;;;;;;4998932;28;20042;-63
2024/03/06 05:44:10;;;;;;;8.48;6.28;;;4.40;99.90;;;;;;4987377;28;20050;-63
2024/03/06 05:46:36;;;;;;;11.70;7.45;;;4.40;99.90;;;;;;4999886;28;20057;-63
2024/03/06 05:49:02;;;;;;;12.35;6.55;;;4.40;99.90;;;;;;4999845;28;20046;-63
2024/03/06 05:51:28;;;;;;;10.73;6.43;;;4.40;99.90;;;;;;5004202;28;20396;-63
2024/03/06 05:53:54;;;;;;;16.38;6.68;;;4.40;99.90;;;;;;4990882;28;20049;-63
2024/03/06 05:56:20;;;;;;;10.10;6.28;;;4.30;99.90;;;;;;4990796;28;20042;-63
2024/03/06 05:58:49;;;;;;;11.00;6.63;;;4.40;99.90;;;;;;4994430;28;20111;-63
2024/03/06 06:01:18;;;;;;;14.32;7.45;;;4.30;99.90;;;;;;4992098;28;20054;-63
2024/03/06 06:03:44;;;;;;;9.75;6.57;;;4.30;99.90;;;;;;4998676;28;20046;-63
2024/03/06 06:06:10;;;;;;;11.25;6.47;;;4.30;99.90;;;;;;4994729;28;20041;-63
2024/03/06 06:08:36;;;;;;;11.52;7.20;;;4.30;99.90;;;;;;5000043;28;20451;-64
2024/03/06 06:11:04;;;;;;;11.02;6.55;;;4.30;99.90;;;;;;5005126;28;20041;-63
2024/03/06 06:13:30;;;;;;;17.02;7.03;;;4.30;99.90;;;;;;5000327;28;20535;-63
2024/03/06 06:15:58;;;;;;;11.02;6.28;;;4.30;99.90;;;;;;4991074;28;20483;-64
2024/03/06 06:18:24;;;;;;;9.68;5.78;;;4.40;99.90;;;;;;4988776;28;20506;-63
2024/03/06 06:20:50;;;;;;;12.68;6.88;;;4.40;99.90;;;;;;5000502;28;20050;-63
2024/03/06 06:23:18;;;;;;;12.43;6.80;;;4.30;99.90;;;;;;5002956;28;20065;-63
2024/03/06 06:25:44;;;;;;;11.80;6.80;;;4.40;99.90;;;;;;5004467;28;20045;-63
2024/03/06 06:28:10;;;;;;;9.40;6.65;;;4.30;99.90;;;;;;4997910;28;20046;-63
2024/03/06 06:30:36;;;;;;;11.77;7.32;;;4.30;99.90;;;;;;5003897;28;20095;-63
2024/03/06 06:33:02;;;;;;;16.92;6.65;;;4.30;99.90;;;;;;5002948;28;20053;-63
2024/03/06 06:35:28;;;;;;;13.15;6.72;;;4.30;99.90;;;;;;4995391;28;20035;-63
2024/03/06 06:37:54;;;;;;;10.48;6.60;;;4.30;99.90;;;;;;4994390;28;20046;-63
2024/03/06 06:40:20;;;;;;;12.05;6.95;;;4.30;99.90;;;;;;4993548;28;20147;-63
2024/03/06 06:42:49;;;;;;;13.93;6.90;;;4.30;99.90;;;;;;5004464;28;20475;-63
2024/03/06 06:45:19;;;;;;;12.32;6.53;;;4.30;99.90;;;;;;4994023;28;20053;-63
2024/03/06 06:47:46;;;;;;;11.45;6.30;;;4.30;99.90;;;;;;4999818;28;20141;-63
2024/03/06 06:50:12;;;;;;;11.60;5.95;;;4.40;99.90;;;;;;5002276;28;20050;-63
2024/03/06 06:52:38;;;;;;;10.95;6.88;;;4.30;99.90;;;;;;4990942;28;20048;-63
2024/03/06 06:55:05;;;;;;;12.02;6.63;;;4.40;99.90;;;;;;4991795;28;20624;-62
2024/03/06 06:57:32;;;;;;;15.75;7.45;;;4.30;99.90;;;;;;4992604;28;20403;-63
2024/03/06 06:59:59;;;;;;;16.25;6.93;;;4.30;99.90;;;;;;4996450;28;20534;-63
2024/03/06 07:02:25;;;;;;;18.00;7.13;;;4.40;99.90;;;;;;5000051;28;20104;-63
2024/03/06 07:04:52;;;;;;;13.63;7.18;;;4.40;99.90;;;;;;4994754;28;20294;-63
2024/03/06 07:07:18;;;;;;;11.30;7.50;;;4.30;99.90;;;;;;5001323;28;20038;-63
2024/03/06 07:09:44;;;;;;;12.55;6.43;;;4.30;99.90;;;;;;4992799;28;20073;-63
2024/03/06 07:12:12;;;;;;;10.48;6.65;;;4.30;99.90;;;;;;5000278;28;20112;-63
2024/03/06 07:14:37;;;;;;;10.95;6.95;;;4.30;99.90;;;;;;5001575;28;20065;-63
2024/03/06 07:17:03;;;;;;;10.82;7.03;;;4.30;99.90;;;;;;4999131;28;20143;-63
2024/03/06 07:19:29;;;;;;;14.50;7.45;;;4.30;99.90;;;;;;4995164;28;20097;-63
2024/03/06 07:21:55;;;;;;;15.25;7.30;;;4.30;99.90;;;;;;4995901;28;20053;-63
2024/03/06 07:24:21;;;;;;;12.55;6.78;;;4.30;99.90;;;;;;4997479;28;20528;-63
2024/03/06 07:26:46;;;;;;;12.23;6.55;;;4.40;99.90;;;;;;5002095;28;20444;-63
2024/03/06 07:29:14;;;;;;;15.40;7.47;;;4.40;99.90;;;;;;4993605;28;20038;-63
2024/03/06 07:31:41;;;;;;;18.90;7.15;;;4.40;99.90;;;;;;5002221;28;20200;-63
2024/03/06 07:34:08;;;;;;;11.25;7.03;;;4.40;99.90;;;;;;4999128;28;20058;-63
2024/03/06 07:36:35;;;;;;;17.05;7.88;;;4.40;99.90;;;;;;5000219;28;20046;-63
2024/03/06 07:39:01;;;;;;;13.65;6.82;;;4.40;99.90;;;;;;5001097;28;20053;-63
2024/03/06 07:41:27;;;;;;;16.38;7.07;;;4.40;99.90;;;;;;5002287;28;20393;-63
2024/03/06 07:43:53;;;;;;;13.30;6.50;;;4.40;99.90;;;;;;4975027;28;20173;-63
2024/03/06 07:46:18;;;;;;;13.30;7.15;;;4.40;99.90;;;;;;4988903;28;20084;-63
2024/03/06 07:48:44;;;;;;;14.48;7.65;;;4.50;99.90;;;;;;4999729;28;20068;-63
2024/03/06 07:51:10;;;;;;;16.75;7.97;;;4.50;99.90;;;;;;5001483;28;20590;-63
2024/03/06 07:53:36;;;;;;;14.15;8.10;;;4.40;99.90;;;;;;4998736;28;20045;-64
2024/03/06 07:56:03;;;;;;;18.05;8.00;;;4.50;99.90;;;;;;4997526;28;20306;-63
2024/03/06 07:58:29;;;;;;;22.13;7.70;;;4.50;99.90;;;;;;5001454;28;20593;-63
2024/03/06 08:00:56;;;;;;;13.27;7.18;;;4.50;99.90;;;;;;4975706;28;20103;-63
2024/03/06 08:03:24;;;;;;;13.30;8.35;;;4.50;99.90;;;;;;4998204;28;20411;-63
2024/03/06 08:05:52;;;;;;;13.77;8.48;;;4.60;99.90;;;;;;4997733;28;20381;-64
2024/03/06 08:08:18;;;;;;;13.05;7.40;;;4.60;99.90;;;;;;4998169;28;20224;-63
2024/03/06 08:10:44;;;;;;;15.13;8.23;;;4.70;99.90;;;;;;4996671;28;20062;-63
2024/03/06 08:13:11;;;;;;;14.07;7.68;;;4.80;99.90;;;;;;5000846;28;20130;-63
2024/03/06 08:15:36;;;;;;;12.93;7.68;;;4.80;99.90;;;;;;4996395;28;20045;-63
2024/03/06 08:18:05;;;;;;;9.98;6.13;;;4.90;99.90;;;;;;4996568;28;20054;-63
2024/03/06 08:20:31;;;;;;;16.83;8.40;;;4.90;99.90;;;;;;4992017;28;20249;-63
2024/03/06 08:22:56;;;;;;;16.45;7.97;;;4.90;99.90;;;;;;5002203;28;20546;-63
2024/03/06 08:25:22;;;;;;;14.90;7.25;;;5.00;99.90;;;;;;4993997;28;20062;-63
2024/03/06 08:27:48;;;;;;;12.40;7.13;;;5.00;99.90;;;;;;5001420;28;20492;-63
2024/03/06 08:30:14;;;;;;;15.63;8.75;;;5.00;99.90;;;;;;4993558;28;20057;-63
2024/03/06 08:32:40;;;;;;;10.77;6.80;;;5.00;99.90;;;;;;5000618;28;20448;-63
2024/03/06 08:35:11;;;;;;;13.25;6.95;;;5.10;99.90;;;;;;4994092;28;20132;-63
2024/03/06 08:37:40;;;;;;;12.10;6.90;;;5.10;99.90;;;;;;4994102;28;20408;-63
2024/03/06 08:40:27;;;;;;;23.13;7.18;;;5.10;99.90;;;;;;4993278;28;20038;-63
2024/03/06 08:42:53;;;;;;;15.98;7.95;;;5.10;99.90;;;;;;4992159;28;20085;-63
2024/03/06 08:45:19;;;;;;;14.88;8.25;;;5.20;99.90;;;;;;4998666;28;20049;-63
2024/03/06 08:47:45;;;;;;;15.43;7.80;;;5.20;99.90;;;;;;5000103;28;20500;-63
2024/03/06 08:50:12;;;;;;;26.20;8.80;;;5.40;99.90;;;;;;5000553;28;20049;-63
2024/03/06 08:52:39;;;;;;;18.80;7.95;;;5.40;99.90;;;;;;5002123;28;20049;-63
2024/03/06 08:55:08;;;;;;;15.23;7.93;;;5.40;99.90;;;;;;4997150;28;20034;-63
2024/03/06 08:57:35;;;;;;;11.63;7.23;;;5.50;99.90;;;;;;4992726;28;20049;-63
2024/03/06 09:00:01;;;;;;;19.08;7.95;;;5.50;99.90;;;;;;4997750;28;20173;-63
2024/03/06 09:02:27;;;;;;;11.52;6.85;;;5.50;99.90;;;;;;4993728;28;20061;-63
2024/03/06 09:04:53;;;;;;;14.98;8.32;;;5.40;99.90;;;;;;5001951;28;20041;-63
2024/03/06 09:07:23;;;;;;;18.75;8.00;;;5.50;99.90;;;;;;4992213;28;20046;-63
2024/03/06 09:09:51;;;;;;;16.05;7.90;;;5.50;99.90;;;;;;4997516;28;20042;-63
2024/03/06 09:12:18;;;;;;;14.55;7.70;;;5.40;99.90;;;;;;5000108;28;20057;-63
2024/03/06 09:14:44;;;;;;;11.20;6.78;;;5.40;99.90;;;;;;4991028;28;20440;-63
2024/03/06 09:17:14;;;;;;;15.10;8.00;;;5.40;99.90;;;;;;5000053;28;20092;-63
2024/03/06 09:19:41;;;;;;;13.55;6.88;;;5.50;99.90;;;;;;4999269;28;20065;-63
2024/03/06 09:22:07;;;;;;;15.15;8.32;;;5.50;99.90;;;;;;4985314;28;20516;-63
2024/03/06 09:24:35;;;;;;;14.07;8.05;;;5.50;99.90;;;;;;4990052;28;21372;-63
2024/03/06 09:27:01;;;;;;;16.52;7.75;;;5.50;99.90;;;;;;4992651;28;20057;-63
2024/03/06 09:29:27;;;;;;;20.02;9.23;;;5.50;99.90;;;;;;4967793;28;20488;-63
2024/03/06 09:31:53;;;;;;;18.23;7.88;;;5.60;99.90;;;;;;4999313;28;20057;-63
2024/03/06 09:34:19;;;;;;;15.95;9.07;;;5.60;99.90;;;;;;5000513;28;20037;-63
2024/03/06 09:36:49;;;;;;;18.05;9.30;;;5.70;99.90;;;;;;5001871;28;20104;-63
2024/03/06 09:39:20;;;;;;;;;;;5.80;99.90;;;;;;5003448;28;20575;-63
2024/03/06 09:41:47;;;;;;;17.40;8.95;;;5.90;99.90;;;;;;5000489;28;20025;-63
2024/03/06 09:44:13;;;;;;;16.42;8.27;;;6.10;99.90;;;;;;5005008;28;20042;-63
2024/03/06 09:46:47;;;;;;;17.77;9.13;;;6.10;99.90;;;;;;5001674;28;20046;-63
2024/03/06 09:49:15;;;;;;;20.52;9.43;;;6.10;99.90;;;;;;5004779;28;20053;-63
2024/03/06 09:51:45;;;;;;;16.27;7.85;;;6.10;99.90;;;;;;4992612;28;20108;-63
2024/03/06 09:54:15;;;;;;;18.17;9.63;;;6.10;99.90;;;;;;4999800;28;20049;-63
2024/03/06 09:56:46;;;;;;;15.95;8.70;;;6.10;99.90;;;;;;4986545;28;20056;-63
2024/03/06 09:59:12;;;;;;;17.90;8.68;;;6.10;99.90;;;;;;5001706;28;20744;-63
2024/03/06 10:01:52;;;;;;;14.82;6.50;;;6.10;99.90;;;;;;4988438;28;20493;-63
2024/03/06 10:04:19;;;;;;;23.80;9.30;;;6.00;99.90;;;;;;5005070;28;20738;-63
2024/03/06 10:06:46;;;;;;;24.83;9.27;;;6.00;99.90;;;;;;5001164;28;20107;-63
2024/03/06 10:09:12;;;;;;;17.13;9.15;;;6.00;99.90;;;;;;5005091;28;20082;-63
2024/03/06 10:11:42;;;;;;;22.70;9.35;;;6.10;99.90;;;;;;4998644;28;20030;-62
2024/03/06 10:14:09;;;;;;;21.85;9.90;;;6.10;99.90;;;;;;5004473;28;20050;-63
2024/03/06 10:16:36;;;;;;;23.55;9.48;;;6.20;99.90;;;;;;4993541;28;20047;-63
2024/03/06 10:19:18;;;;;;;20.65;9.57;;;6.20;99.90;;;;;;4994350;28;20050;-63
2024/03/06 10:21:48;;;;;;;19.83;9.68;;;6.20;99.90;;;;;;4996638;28;20053;-62
2024/03/06 10:24:27;;;;;;;28.80;10.27;;;6.30;99.90;;;;;;4990225;28;20054;-63
2024/03/06 10:26:56;;;;;;;28.08;10.98;;;6.30;99.90;;;;;;4985980;28;20149;-62
2024/03/06 10:29:24;;;;;;;16.70;7.77;;;6.30;99.90;;;;;;4999467;28;20523;-63
2024/03/06 10:31:54;;;;;;;21.27;11.18;;;6.30;99.90;;;;;;4992588;28;20060;-63
2024/03/06 10:34:20;;;;;;;27.88;11.05;;;6.30;99.90;;;;;;4984613;28;20481;-63
2024/03/06 10:36:53;;;;;;;21.50;10.10;;;6.20;99.90;;;;;;5000694;28;20068;-63
2024/03/06 10:39:21;;;;;;;25.80;11.15;;;6.10;99.90;;;;;;4999951;28;20043;-63
2024/03/06 10:42:01;;;;;;;20.38;10.63;;;6.10;99.90;;;;;;4993640;28;20046;-63
2024/03/06 10:44:28;;;;;;;23.70;11.90;;;6.10;99.90;;;;;;4999947;28;20404;-63
2024/03/06 10:47:03;;;;;;;24.42;11.38;;;6.10;99.90;;;;;;4994638;28;20500;-62
2024/03/06 10:49:30;;;;;;;30.83;10.68;;;6.10;99.90;;;;;;5003779;28;20064;-63
2024/03/06 10:52:06;;;;;;;18.33;9.55;;;6.20;99.90;;;;;;4999702;28;20512;-63
2024/03/06 10:54:38;;;;;;;23.52;11.82;;;6.20;99.90;;;;;;5001077;28;20595;-63
2024/03/06 10:57:05;;;;;;;33.17;12.45;;;6.20;99.90;;;;;;4998250;28;20081;-63
2024/03/06 10:59:31;;;;;;;24.92;10.70;;;6.20;99.90;;;;;;4993733;28;20511;-63
2024/03/06 11:02:00;;;;;;;31.25;11.50;;;6.30;99.90;;;;;;4991037;28;20054;-63
2024/03/06 11:04:28;;;;;;;31.73;13.18;;;6.20;99.90;;;;;;4998996;28;20395;-62
2024/03/06 11:06:55;;;;;;;36.92;12.93;;;6.30;99.90;;;;;;4989302;28;20145;-62
2024/03/06 11:09:21;;;;;;;31.52;13.02;;;6.40;99.90;;;;;;5003600;28;20041;-63
2024/03/06 11:11:52;;;;;;;22.02;11.23;;;6.50;99.90;;;;;;4999145;28;20125;-63
2024/03/06 11:14:18;;;;;;;28.40;12.55;;;6.50;99.90;;;;;;4998434;28;20112;-62
2024/03/06 11:17:08;;;;;;;28.95;14.15;;;6.70;99.90;;;;;;4992957;28;20034;-63
2024/03/06 11:20:06;;;;;;;31.95;14.68;;;6.80;99.90;;;;;;5003133;28;20126;-63
2024/03/06 11:22:57;;;;;;;33.22;15.07;;;7.00;99.90;;;;;;4999240;28;20060;-63
2024/03/06 11:25:53;;;;;;;31.77;14.23;;;7.20;99.90;;;;;;4990918;28;20061;-63
2024/03/06 11:28:28;;;;;;;34.25;14.55;;;7.50;99.90;;;;;;4994032;28;20145;-63
2024/03/06 11:30:54;;;;;;;34.33;14.90;;;7.60;99.90;;;;;;4999664;28;20157;-63
2024/03/06 11:33:20;;;;;;;31.17;12.32;;;7.80;99.90;;;;;;4994818;28;20148;-63
2024/03/06 11:36:21;;;;;;;27.13;12.85;;;7.90;99.90;;;;;;4991028;28;20039;-62
2024/03/06 11:38:53;;;;;;;30.13;13.85;;;8.00;99.90;;;;;;4998254;28;20050;-63
2024/03/06 11:41:20;;;;;;;28.08;12.55;;;8.00;99.90;;;;;;4997820;28;20050;-63
2024/03/06 11:43:55;;;;;;;28.38;12.30;;;8.00;99.90;;;;;;5002117;28;20077;-62
2024/03/06 11:46:23;;;;;;;39.78;13.23;;;8.00;98.70;;;;;;4993250;28;20045;-63
2024/03/06 11:48:53;;;;;;;25.02;12.77;;;7.90;99.90;;;;;;5001631;28;20049;-63
2024/03/06 11:51:19;;;;;;;;;;;8.00;99.90;;;;;;4994709;28;20060;-63
2024/03/06 11:53:45;;;;;;;27.55;12.30;;;8.00;99.90;;;;;;4996941;28;19921;-62
2024/03/06 11:56:11;;;;;;;29.52;14.27;;;8.10;99.90;;;;;;4990966;28;20097;-63
2024/03/06 11:58:37;;;;;;;28.55;12.88;;;8.00;99.90;;;;;;4995052;28;20148;-63
2024/03/06 12:01:04;;;;;;;34.55;12.98;;;8.00;98.60;;;;;;4994312;28;20419;-63
2024/03/06 12:03:30;;;;;;;27.92;12.00;;;7.90;99.70;;;;;;4995486;28;20056;-63
2024/03/06 12:05:56;;;;;;;30.27;12.52;;;7.80;99.90;;;;;;4993669;28;20042;-63
2024/03/06 12:08:22;;;;;;;27.33;12.75;;;7.80;99.90;;;;;;4999341;28;20082;-63
2024/03/06 12:10:48;;;;;;;33.03;13.43;;;7.80;99.90;;;;;;5002138;28;20041;-62
2024/03/06 12:13:13;;;;;;;29.30;13.77;;;7.70;99.90;;;;;;4989214;28;20045;-63
2024/03/06 12:15:44;;;;;;;38.25;13.88;;;7.60;99.90;;;;;;5001421;28;20057;-63
2024/03/06 12:18:10;;;;;;;34.15;14.05;;;7.70;99.90;;;;;;4999201;28;20077;-63
2024/03/06 12:20:41;;;;;;;32.17;13.93;;;7.80;99.90;;;;;;4998856;28;20046;-62
2024/03/06 12:23:28;;;;;;;30.50;14.38;;;7.80;99.90;;;;;;5002050;28;20450;-63
2024/03/06 12:26:06;;;;;;;29.92;13.95;;;7.90;99.90;;;;;;4991240;28;20206;-62
2024/03/06 12:28:32;;;;;;;28.85;13.73;;;8.10;99.90;;;;;;4996160;28;20421;-62
2024/03/06 12:31:01;;;;;;;28.88;12.75;;;8.30;99.90;;;;;;4996096;28;20038;-62
2024/03/06 12:33:27;;;;;;;30.42;14.13;;;8.30;99.90;;;;;;4995535;28;20089;-62
2024/03/06 12:36:10;;;;;;;25.58;13.00;;;8.30;99.90;;;;;;4997050;28;20039;-63
2024/03/06 12:38:37;;;;;;;28.77;11.98;;;8.30;96.60;;;;;;4985780;28;20054;-63
2024/03/06 12:41:04;;;;;;;35.58;13.18;;;8.30;97.00;;;;;;4996895;28;20046;-63
2024/03/06 12:43:29;;;;;;;23.08;12.00;;;8.40;99.90;;;;;;4997038;28;20584;-62
2024/03/06 12:45:57;;;;;;;26.05;12.10;;;8.40;99.90;;;;;;5000080;28;20052;-62
2024/03/06 12:48:24;;;;;;;19.17;10.77;;;8.40;99.90;;;;;;4992292;28;20041;-63
2024/03/06 12:50:54;;;;;;;17.35;9.93;;;8.50;99.90;;;;;;4991570;28;20046;-63